Time,TemperatureF,DewpointF,PressureIn,WindDirection,WindDirectionDegrees,WindSpeedMPH,WindSpeedGustMPH,Humidity,HourlyPrecipIn,Conditions,Clouds,dailyrainin,SolarRadiationWatts/m^2,SoftwareType,DateUTC
2013-06-10 00:04:00,59.5,57.6,30.12,ESE,105,0.0,3.0,93,0.00,,,0.00,0.0,meteohub,2013-06-10 10:04:00,
2013-06-10 00:09:00,59.4,56.7,30.12,ESE,104,1.0,3.0,91,0.00,,,0.00,0.0,meteohub,2013-06-10 10:09:00,
2013-06-10 00:14:00,58.8,55.6,30.12,East,88,0.0,2.0,89,0.00,,,0.00,0.0,meteohub,2013-06-10 10:14:00,
2013-06-10 00:19:00,58.5,54.9,30.12,ENE,70,1.0,3.0,88,0.00,,,0.00,0.0,meteohub,2013-06-10 10:19:00,
2013-06-10 00:24:00,57.9,54.1,30.11,East,88,2.0,4.0,87,0.00,,,0.00,0.0,meteohub,2013-06-10 10:24:00,
2013-06-10 00:29:00,57.6,53.4,30.11,ENE,78,2.0,5.0,86,0.00,,,0.00,0.0,meteohub,2013-06-10 10:29:00,
2013-06-10 00:34:00,57.4,53.6,30.11,East,83,0.0,5.0,87,0.00,,,0.00,0.0,meteohub,2013-06-10 10:34:00,
2013-06-10 00:39:00,56.8,53.1,30.11,ESE,103,0.0,5.0,87,0.00,,,0.00,0.0,meteohub,2013-06-10 10:39:00,
2013-06-10 00:44:00,56.1,52.9,30.11,East,100,0.0,4.0,89,0.00,,,0.00,0.0,meteohub,2013-06-10 10:44:00,
2013-06-10 00:49:00,55.9,53.1,30.11,East,98,1.0,3.0,90,0.00,,,0.00,0.0,meteohub,2013-06-10 10:49:00,
2013-06-10 00:54:00,55.9,53.6,30.11,East,88,1.0,3.0,92,0.00,,,0.00,0.0,meteohub,2013-06-10 10:54:00,
2013-06-10 00:59:00,56.1,53.6,30.11,East,79,2.0,2.0,91,0.00,,,0.00,0.0,meteohub,2013-06-10 10:59:00,
2013-06-10 01:04:00,55.9,53.1,30.11,East,79,0.0,3.0,90,0.00,,,0.00,0.0,meteohub,2013-06-10 11:04:00,
2013-06-10 01:09:00,55.8,52.9,30.11,ENE,72,2.0,3.0,90,0.00,,,0.00,0.0,meteohub,2013-06-10 11:09:00,
2013-06-10 01:14:00,55.8,51.6,30.11,ENE,66,4.0,4.0,86,0.00,,,0.00,0.0,meteohub,2013-06-10 11:14:00,
2013-06-10 01:19:00,55.6,50.9,30.11,ENE,76,4.0,4.0,84,0.00,,,0.00,0.0,meteohub,2013-06-10 11:19:00,
2013-06-10 01:24:00,55.6,51.1,30.10,East,80,2.0,4.0,85,0.00,,,0.00,0.0,meteohub,2013-06-10 11:24:00,
2013-06-10 01:29:00,55.0,50.9,30.10,East,81,1.0,5.0,86,0.00,,,0.00,0.0,meteohub,2013-06-10 11:29:00,
2013-06-10 01:34:00,54.3,50.9,30.10,East,80,3.0,5.0,88,0.00,,,0.00,0.0,meteohub,2013-06-10 11:34:00,
2013-06-10 01:39:00,54.1,50.9,30.10,East,92,1.0,3.0,89,0.00,,,0.00,0.0,meteohub,2013-06-10 11:39:00,
2013-06-10 01:44:00,54.0,51.1,30.10,East,81,3.0,3.0,90,0.00,,,0.00,0.0,meteohub,2013-06-10 11:44:00,
2013-06-10 01:49:00,54.1,51.3,30.11,East,79,1.0,3.0,90,0.00,,,0.00,0.0,meteohub,2013-06-10 11:49:00,
2013-06-10 01:54:00,54.7,51.4,30.10,East,81,1.0,3.0,89,0.00,,,0.00,0.0,meteohub,2013-06-10 11:54:00,
2013-06-10 01:59:00,54.7,51.3,30.10,East,81,2.0,3.0,88,0.00,,,0.00,0.0,meteohub,2013-06-10 11:59:00,
2013-06-10 02:04:00,54.7,51.3,30.10,ENE,76,4.0,4.0,88,0.00,,,0.00,0.0,meteohub,2013-06-10 12:04:00,
2013-06-10 02:09:00,54.9,51.6,30.11,ENE,76,1.0,3.0,89,0.00,,,0.00,0.0,meteohub,2013-06-10 12:09:00,
2013-06-10 02:14:00,55.0,51.8,30.10,East,80,2.0,4.0,89,0.00,,,0.00,0.0,meteohub,2013-06-10 12:14:00,
2013-06-10 02:19:00,55.0,51.6,30.10,East,96,1.0,4.0,88,0.00,,,0.00,0.0,meteohub,2013-06-10 12:19:00,
2013-06-10 02:24:00,55.2,51.8,30.10,East,79,1.0,4.0,88,0.00,,,0.00,0.0,meteohub,2013-06-10 12:24:00,
2013-06-10 02:29:00,55.6,52.2,30.10,East,83,1.0,4.0,88,0.00,,,0.00,0.0,meteohub,2013-06-10 12:29:00,
2013-06-10 02:34:00,55.6,51.8,30.09,East,88,1.0,4.0,87,0.00,,,0.00,0.0,meteohub,2013-06-10 12:34:00,
2013-06-10 02:39:00,55.2,51.4,30.09,East,87,1.0,4.0,87,0.00,,,0.00,0.0,meteohub,2013-06-10 12:39:00,
2013-06-10 02:44:00,55.0,51.3,30.09,East,80,2.0,4.0,87,0.00,,,0.00,0.0,meteohub,2013-06-10 12:44:00,
2013-06-10 02:49:00,55.2,51.8,30.09,East,79,3.0,3.0,88,0.00,,,0.00,0.0,meteohub,2013-06-10 12:49:00,
2013-06-10 02:54:00,55.6,51.8,30.09,East,79,1.0,4.0,87,0.00,,,0.00,0.0,meteohub,2013-06-10 12:54:00,
2013-06-10 02:59:00,55.6,51.4,30.09,East,79,0.0,5.0,86,0.00,,,0.00,0.0,meteohub,2013-06-10 12:59:00,
2013-06-10 03:04:00,55.2,51.1,30.09,East,80,1.0,5.0,86,0.00,,,0.00,0.0,meteohub,2013-06-10 13:04:00,
2013-06-10 03:10:00,55.0,51.3,30.09,East,90,3.0,5.0,87,0.00,,,0.00,0.0,meteohub,2013-06-10 13:10:00,
2013-06-10 03:15:00,54.9,51.4,30.09,ENE,76,2.0,4.0,88,0.00,,,0.00,0.0,meteohub,2013-06-10 13:15:00,
2013-06-10 03:20:00,54.7,50.0,30.10,ESE,109,2.0,4.0,84,0.00,,,0.00,0.0,meteohub,2013-06-10 13:20:00,
2013-06-10 03:25:00,54.1,49.8,30.09,ENE,78,1.0,4.0,85,0.00,,,0.00,0.0,meteohub,2013-06-10 13:25:00,
2013-06-10 03:30:00,53.8,50.4,30.09,East,89,0.0,4.0,88,0.00,,,0.00,0.0,meteohub,2013-06-10 13:30:00,
2013-06-10 03:35:00,53.4,49.6,30.09,East,86,2.0,4.0,87,0.00,,,0.00,0.0,meteohub,2013-06-10 13:35:00,
2013-06-10 03:40:00,53.2,49.5,30.09,East,83,1.0,3.0,87,0.00,,,0.00,0.0,meteohub,2013-06-10 13:40:00,
2013-06-10 03:45:00,53.2,49.8,30.09,East,94,1.0,3.0,88,0.00,,,0.00,0.0,meteohub,2013-06-10 13:45:00,
2013-06-10 03:50:00,53.1,49.8,30.09,East,82,1.0,3.0,89,0.00,,,0.00,0.0,meteohub,2013-06-10 13:50:00,
2013-06-10 03:55:00,52.7,49.3,30.10,East,84,2.0,3.0,88,0.00,,,0.00,0.0,meteohub,2013-06-10 13:55:00,
2013-06-10 04:00:00,52.5,49.5,30.10,East,83,0.0,3.0,89,0.00,,,0.00,0.0,meteohub,2013-06-10 14:00:00,
2013-06-10 04:05:00,52.3,49.3,30.09,East,86,1.0,3.0,89,0.00,,,0.00,0.0,meteohub,2013-06-10 14:05:00,
2013-06-10 04:10:00,52.2,49.1,30.10,ENE,75,2.0,3.0,89,0.00,,,0.00,0.0,meteohub,2013-06-10 14:10:00,
2013-06-10 04:15:00,52.2,49.1,30.10,East,90,1.0,3.0,89,0.00,,,0.00,0.0,meteohub,2013-06-10 14:15:00,
2013-06-10 04:20:00,52.3,49.5,30.10,East,81,2.0,3.0,90,0.00,,,0.00,0.0,meteohub,2013-06-10 14:20:00,
2013-06-10 04:25:00,52.9,50.4,30.10,ENE,72,3.0,3.0,91,0.00,,,0.00,0.0,meteohub,2013-06-10 14:25:00,
2013-06-10 04:30:00,53.2,50.0,30.10,East,84,1.0,3.0,89,0.00,,,0.00,0.0,meteohub,2013-06-10 14:30:00,
2013-06-10 04:35:00,53.2,50.0,30.10,East,84,0.0,4.0,89,0.00,,,0.00,0.0,meteohub,2013-06-10 14:35:00,
2013-06-10 04:40:00,53.1,49.8,30.10,East,89,1.0,4.0,89,0.00,,,0.00,0.0,meteohub,2013-06-10 14:40:00,
2013-06-10 04:45:00,53.1,50.2,30.10,ENE,76,2.0,4.0,90,0.00,,,0.00,0.0,meteohub,2013-06-10 14:45:00,
2013-06-10 04:50:00,53.4,50.5,30.10,East,81,2.0,3.0,90,0.00,,,0.00,0.0,meteohub,2013-06-10 14:50:00,
2013-06-10 04:55:00,53.2,50.0,30.10,East,90,2.0,5.0,89,0.00,,,0.00,0.0,meteohub,2013-06-10 14:55:00,
2013-06-10 05:00:00,52.9,48.7,30.10,East,93,1.0,5.0,86,0.00,,,0.00,0.0,meteohub,2013-06-10 15:00:00,
2013-06-10 05:05:00,52.5,48.7,30.10,East,84,2.0,5.0,87,0.00,,,0.00,0.0,meteohub,2013-06-10 15:05:00,
2013-06-10 05:10:00,52.2,49.1,30.10,East,98,2.0,4.0,89,0.00,,,0.00,0.0,meteohub,2013-06-10 15:10:00,
2013-06-10 05:15:00,52.0,48.9,30.11,ESE,115,1.0,4.0,89,0.00,,,0.00,0.0,meteohub,2013-06-10 15:15:00,
2013-06-10 05:20:00,51.4,48.4,30.10,East,94,1.0,4.0,89,0.00,,,0.00,0.0,meteohub,2013-06-10 15:20:00,
2013-06-10 05:25:00,51.4,48.4,30.11,East,84,1.0,3.0,89,0.00,,,0.00,0.0,meteohub,2013-06-10 15:25:00,
2013-06-10 05:30:00,51.3,48.2,30.11,East,86,2.0,3.0,89,0.00,,,0.00,0.0,meteohub,2013-06-10 15:30:00,
2013-06-10 05:35:00,51.3,48.2,30.11,East,90,1.0,3.0,89,0.00,,,0.00,0.0,meteohub,2013-06-10 15:35:00,
2013-06-10 05:40:00,51.3,48.4,30.11,East,86,2.0,3.0,90,0.00,,,0.00,0.0,meteohub,2013-06-10 15:40:00,
2013-06-10 05:45:00,51.4,48.9,30.11,ENE,71,3.0,3.0,91,0.00,,,0.00,0.0,meteohub,2013-06-10 15:45:00,
2013-06-10 05:50:00,51.8,48.9,30.12,East,88,2.0,6.0,90,0.00,,,0.00,5.0,meteohub,2013-06-10 15:50:00,
2013-06-10 05:55:00,51.8,48.7,30.12,East,80,3.0,6.0,89,0.00,,,0.00,12.0,meteohub,2013-06-10 15:55:00,
2013-06-10 06:00:00,51.4,48.4,30.12,East,80,1.0,6.0,89,0.00,,,0.00,16.0,meteohub,2013-06-10 16:00:00,
2013-06-10 06:05:00,51.3,48.7,30.12,East,82,1.0,4.0,91,0.00,,,0.00,21.0,meteohub,2013-06-10 16:05:00,
2013-06-10 06:10:00,51.4,48.9,30.12,ENE,77,1.0,4.0,91,0.00,,,0.00,26.0,meteohub,2013-06-10 16:10:00,
2013-06-10 06:15:00,51.4,48.9,30.12,East,81,2.0,3.0,91,0.00,,,0.00,28.0,meteohub,2013-06-10 16:15:00,
2013-06-10 06:20:00,51.4,48.9,30.12,East,85,1.0,3.0,91,0.00,,,0.00,30.0,meteohub,2013-06-10 16:20:00,
2013-06-10 06:25:00,52.2,49.3,30.12,East,83,0.0,3.0,90,0.00,,,0.00,28.0,meteohub,2013-06-10 16:25:00,
2013-06-10 06:30:00,52.3,49.3,30.12,East,86,1.0,3.0,89,0.00,,,0.00,26.0,meteohub,2013-06-10 16:30:00,
2013-06-10 06:35:00,52.3,49.3,30.12,East,82,0.0,3.0,89,0.00,,,0.00,28.0,meteohub,2013-06-10 16:35:00,
2013-06-10 06:40:00,52.3,49.5,30.12,East,93,1.0,3.0,90,0.00,,,0.00,33.0,meteohub,2013-06-10 16:40:00,
2013-06-10 06:45:00,52.5,50.0,30.13,East,86,2.0,3.0,91,0.00,,,0.00,42.0,meteohub,2013-06-10 16:45:00,
2013-06-10 06:50:00,53.1,50.7,30.13,East,91,1.0,3.0,92,0.00,,,0.00,49.0,meteohub,2013-06-10 16:50:00,
2013-06-10 06:55:00,53.2,50.7,30.12,East,91,1.0,3.0,91,0.00,,,0.00,51.0,meteohub,2013-06-10 16:55:00,
2013-06-10 07:00:00,53.8,51.4,30.13,East,94,1.0,3.0,92,0.00,,,0.00,51.0,meteohub,2013-06-10 17:00:00,
2013-06-10 07:05:00,54.7,52.7,30.12,East,94,1.0,2.0,93,0.00,,,0.00,53.0,meteohub,2013-06-10 17:05:00,
2013-06-10 07:10:00,55.6,53.1,30.12,East,94,0.0,2.0,91,0.00,,,0.00,56.0,meteohub,2013-06-10 17:10:00,
2013-06-10 07:15:00,56.1,53.8,30.12,East,80,0.0,1.0,92,0.00,,,0.00,65.0,meteohub,2013-06-10 17:15:00,
2013-06-10 07:20:00,56.8,55.2,30.12,East,80,1.0,1.0,94,0.00,,,0.00,74.0,meteohub,2013-06-10 17:20:00,
2013-06-10 07:25:00,57.4,55.6,30.12,East,79,0.0,1.0,94,0.00,,,0.00,84.0,meteohub,2013-06-10 17:25:00,
2013-06-10 07:31:00,58.3,55.9,30.12,East,80,0.0,1.0,92,0.00,,,0.00,97.0,meteohub,2013-06-10 17:31:00,
2013-06-10 07:36:00,59.4,56.7,30.12,East,80,0.0,1.0,91,0.00,,,0.00,102.0,meteohub,2013-06-10 17:36:00,
2013-06-10 07:41:00,60.3,57.0,30.12,East,80,0.0,1.0,89,0.00,,,0.00,107.0,meteohub,2013-06-10 17:41:00,
2013-06-10 07:46:00,60.6,57.0,30.13,East,79,0.0,1.0,88,0.00,,,0.00,114.0,meteohub,2013-06-10 17:46:00,
2013-06-10 07:51:00,61.2,57.6,30.13,East,79,0.0,0.0,88,0.00,,,0.00,111.0,meteohub,2013-06-10 17:51:00,
2013-06-10 07:56:00,61.9,58.3,30.13,East,79,0.0,0.0,88,0.00,,,0.00,118.0,meteohub,2013-06-10 17:56:00,
2013-06-10 08:01:00,62.2,57.7,30.12,East,80,0.0,0.0,85,0.00,,,0.00,132.0,meteohub,2013-06-10 18:01:00,
2013-06-10 08:06:00,63.0,58.6,30.12,East,82,1.0,1.0,86,0.00,,,0.00,151.0,meteohub,2013-06-10 18:06:00,
2013-06-10 08:11:00,63.5,60.3,30.12,West,261,0.0,2.0,89,0.00,,,0.00,176.0,meteohub,2013-06-10 18:11:00,
2013-06-10 08:16:00,63.9,60.6,30.12,West,279,0.0,2.0,89,0.00,,,0.00,185.0,meteohub,2013-06-10 18:16:00,
2013-06-10 08:21:00,63.7,60.6,30.12,West,273,0.0,3.0,90,0.00,,,0.00,200.0,meteohub,2013-06-10 18:21:00,
2013-06-10 08:26:00,63.9,60.8,30.12,West,273,0.0,3.0,90,0.00,,,0.00,190.0,meteohub,2013-06-10 18:26:00,
2013-06-10 08:31:00,63.7,60.4,30.12,West,273,0.0,3.0,89,0.00,,,0.00,186.0,meteohub,2013-06-10 18:31:00,
2013-06-10 08:36:00,63.9,60.8,30.12,West,273,1.0,3.0,90,0.00,,,0.00,202.0,meteohub,2013-06-10 18:36:00,
2013-06-10 08:41:00,64.0,61.0,30.12,WNW,292,0.0,2.0,90,0.00,,,0.00,218.0,meteohub,2013-06-10 18:41:00,
2013-06-10 08:46:00,64.0,60.8,30.12,WNW,292,0.0,2.0,89,0.00,,,0.00,206.0,meteohub,2013-06-10 18:46:00,
2013-06-10 08:51:00,64.0,61.0,30.12,WNW,288,0.0,2.0,90,0.00,,,0.00,186.0,meteohub,2013-06-10 18:51:00,
2013-06-10 08:56:00,63.9,60.6,30.12,SW,232,0.0,2.0,89,0.00,,,0.00,200.0,meteohub,2013-06-10 18:56:00,
2013-06-10 09:01:00,63.9,60.8,30.12,WNW,284,0.0,3.0,90,0.00,,,0.00,188.0,meteohub,2013-06-10 19:01:00,
2013-06-10 09:06:00,64.0,61.0,30.12,WNW,288,1.0,3.0,90,0.00,,,0.00,160.0,meteohub,2013-06-10 19:06:00,
2013-06-10 09:11:00,64.2,61.2,30.12,West,265,1.0,3.0,90,0.00,,,0.00,153.0,meteohub,2013-06-10 19:11:00,
2013-06-10 09:16:00,64.2,61.2,30.12,West,264,0.0,3.0,90,0.00,,,0.00,269.0,meteohub,2013-06-10 19:16:00,
2013-06-10 09:21:00,64.6,61.3,30.12,West,265,0.0,2.0,89,0.00,,,0.00,200.0,meteohub,2013-06-10 19:21:00,
2013-06-10 09:27:00,64.8,61.5,30.12,West,265,0.0,2.0,89,0.00,,,0.00,257.0,meteohub,2013-06-10 19:27:00,
2013-06-10 09:32:00,64.9,62.2,30.12,West,270,0.0,2.0,91,0.00,,,0.00,181.0,meteohub,2013-06-10 19:32:00,
2013-06-10 09:37:00,64.9,62.2,30.12,West,259,3.0,3.0,91,0.00,,,0.00,163.0,meteohub,2013-06-10 19:37:00,
2013-06-10 09:42:00,64.4,61.7,30.12,West,272,1.0,4.0,91,0.00,,,0.00,185.0,meteohub,2013-06-10 19:42:00,
2013-06-10 09:47:00,64.2,61.5,30.12,West,272,1.0,4.0,91,0.00,,,0.00,255.0,meteohub,2013-06-10 19:47:00,
2013-06-10 09:52:00,64.4,62.1,30.11,West,273,0.0,4.0,92,0.00,,,0.00,311.0,meteohub,2013-06-10 19:52:00,
2013-06-10 09:57:00,64.8,62.4,30.11,West,265,1.0,3.0,92,0.00,,,0.00,253.0,meteohub,2013-06-10 19:57:00,
2013-06-10 10:02:00,64.8,62.1,30.12,SSW,213,2.0,3.0,91,0.00,,,0.00,257.0,meteohub,2013-06-10 20:02:00,
2013-06-10 10:07:00,64.9,62.2,30.12,West,264,2.0,4.0,91,0.00,,,0.00,207.0,meteohub,2013-06-10 20:07:00,
2013-06-10 10:12:00,64.9,62.2,30.11,West,279,1.0,4.0,91,0.00,,,0.00,237.0,meteohub,2013-06-10 20:12:00,
2013-06-10 10:17:00,65.1,62.1,30.11,WSW,256,0.0,4.0,90,0.00,,,0.00,302.0,meteohub,2013-06-10 20:17:00,
2013-06-10 10:22:00,65.5,62.2,30.12,West,279,2.0,3.0,89,0.00,,,0.00,271.0,meteohub,2013-06-10 20:22:00,
2013-06-10 10:27:00,65.7,62.1,30.11,NW,317,1.0,3.0,88,0.00,,,0.00,323.0,meteohub,2013-06-10 20:27:00,
2013-06-10 10:32:00,65.8,62.2,30.11,NW,309,0.0,4.0,88,0.00,,,0.00,315.0,meteohub,2013-06-10 20:32:00,
2013-06-10 10:37:00,66.4,62.1,30.11,SW,234,0.0,4.0,86,0.00,,,0.00,308.0,meteohub,2013-06-10 20:37:00,
2013-06-10 10:42:00,66.7,62.4,30.12,NW,305,1.0,4.0,86,0.00,,,0.00,243.0,meteohub,2013-06-10 20:42:00,
2013-06-10 10:47:00,66.7,62.4,30.12,SW,235,0.0,4.0,86,0.00,,,0.00,183.0,meteohub,2013-06-10 20:47:00,
2013-06-10 10:52:00,66.7,62.1,30.12,NW,309,0.0,4.0,85,0.00,,,0.00,181.0,meteohub,2013-06-10 20:52:00,
2013-06-10 10:57:00,66.7,62.1,30.12,West,263,0.0,4.0,85,0.00,,,0.00,158.0,meteohub,2013-06-10 20:57:00,
2013-06-10 11:02:00,66.7,62.1,30.12,West,263,0.0,3.0,85,0.00,,,0.00,169.0,meteohub,2013-06-10 21:02:00,
2013-06-10 11:07:00,66.9,62.6,30.11,WSW,250,0.0,3.0,86,0.00,,,0.00,148.0,meteohub,2013-06-10 21:07:00,
2013-06-10 11:12:00,66.6,62.6,30.11,SW,232,0.0,3.0,87,0.00,,,0.00,200.0,meteohub,2013-06-10 21:12:00,
2013-06-10 11:16:00,66.6,62.6,30.11,SW,219,0.0,3.0,87,0.00,,,0.00,183.0,meteohub,2013-06-10 21:16:00,
2013-06-10 11:22:00,66.4,62.4,30.11,SW,232,0.0,3.0,87,0.00,,,0.00,197.0,meteohub,2013-06-10 21:22:00,
2013-06-10 11:27:00,66.4,62.4,30.10,WSW,240,0.0,3.0,87,0.00,,,0.00,213.0,meteohub,2013-06-10 21:27:00,
2013-06-10 11:32:00,66.4,62.4,30.11,West,281,0.0,3.0,87,0.00,,,0.00,158.0,meteohub,2013-06-10 21:32:00,
2013-06-10 11:37:00,66.6,62.6,30.11,WSW,257,0.0,2.0,87,0.00,,,0.00,151.0,meteohub,2013-06-10 21:37:00,
2013-06-10 11:42:00,66.4,62.4,30.11,WSW,246,0.0,2.0,87,0.00,,,0.00,197.0,meteohub,2013-06-10 21:42:00,
2013-06-10 11:47:00,66.4,62.8,30.10,WSW,246,1.0,3.0,88,0.00,,,0.00,207.0,meteohub,2013-06-10 21:47:00,
2013-06-10 11:52:00,66.2,62.6,30.10,West,259,0.0,3.0,88,0.00,,,0.00,207.0,meteohub,2013-06-10 21:52:00,
2013-06-10 11:57:00,66.4,63.0,30.10,WSW,245,0.0,3.0,89,0.00,,,0.00,260.0,meteohub,2013-06-10 21:57:00,
2013-06-10 12:02:00,66.6,63.0,30.10,SW,214,1.0,3.0,88,0.00,,,0.00,251.0,meteohub,2013-06-10 22:02:00,
2013-06-10 12:07:00,66.4,62.8,30.10,SW,235,0.0,3.0,88,0.00,,,0.00,211.0,meteohub,2013-06-10 22:07:00,
2013-06-10 12:12:00,66.2,62.8,30.10,SW,233,0.0,3.0,89,0.00,,,0.00,155.0,meteohub,2013-06-10 22:12:00,
2013-06-10 12:17:00,66.2,62.8,30.10,SW,234,0.0,4.0,89,0.00,,,0.00,155.0,meteohub,2013-06-10 22:17:00,
2013-06-10 12:22:00,65.8,62.4,30.10,South,188,0.0,4.0,89,0.00,,,0.00,160.0,meteohub,2013-06-10 22:22:00,
2013-06-10 12:27:00,65.8,62.4,30.10,SW,223,0.0,2.0,89,0.00,,,0.00,153.0,meteohub,2013-06-10 22:27:00,
2013-06-10 12:32:00,65.8,62.4,30.10,SW,221,0.0,3.0,89,0.00,,,0.00,218.0,meteohub,2013-06-10 22:32:00,
2013-06-10 12:37:00,66.0,62.6,30.10,SW,231,1.0,3.0,89,0.00,,,0.00,241.0,meteohub,2013-06-10 22:37:00,
2013-06-10 12:42:00,66.2,62.8,30.09,SSW,208,0.0,4.0,89,0.00,,,0.00,272.0,meteohub,2013-06-10 22:42:00,
2013-06-10 12:47:00,66.6,63.1,30.09,SSW,202,0.0,4.0,89,0.00,,,0.00,258.0,meteohub,2013-06-10 22:47:00,
2013-06-10 12:52:00,66.7,62.8,30.09,SW,232,2.0,4.0,87,0.00,,,0.00,299.0,meteohub,2013-06-10 22:52:00,
2013-06-10 12:57:00,66.9,62.6,30.09,WSW,246,0.0,3.0,86,0.00,,,0.00,258.0,meteohub,2013-06-10 22:57:00,
2013-06-10 13:02:00,67.3,63.0,30.09,WSW,246,1.0,4.0,86,0.00,,,0.00,281.0,meteohub,2013-06-10 23:02:00,
2013-06-10 13:07:00,67.5,62.4,30.09,SSE,153,0.0,4.0,84,0.00,,,0.00,304.0,meteohub,2013-06-10 23:07:00,
2013-06-10 13:12:00,67.6,62.6,30.09,West,261,1.0,4.0,84,0.00,,,0.00,227.0,meteohub,2013-06-10 23:12:00,
2013-06-10 13:17:00,67.8,63.1,30.09,WSW,250,0.0,4.0,85,0.00,,,0.00,209.0,meteohub,2013-06-10 23:17:00,
2013-06-10 13:22:00,67.8,62.8,30.09,SW,228,1.0,4.0,84,0.00,,,0.00,151.0,meteohub,2013-06-10 23:22:00,
2013-06-10 13:27:00,67.6,63.0,30.09,South,185,1.0,6.0,85,0.00,,,0.00,232.0,meteohub,2013-06-10 23:27:00,
2013-06-10 13:32:00,67.5,63.1,30.09,West,267,1.0,6.0,86,0.00,,,0.00,323.0,meteohub,2013-06-10 23:32:00,
2013-06-10 13:37:00,67.6,63.3,30.09,South,176,0.0,6.0,86,0.00,,,0.00,397.0,meteohub,2013-06-10 23:37:00,
2013-06-10 13:42:00,68.2,63.1,30.08,SW,231,2.0,6.0,84,0.00,,,0.00,404.0,meteohub,2013-06-10 23:42:00,
2013-06-10 13:47:00,68.5,63.1,30.08,SSW,212,0.0,5.0,83,0.00,,,0.00,561.0,meteohub,2013-06-10 23:47:00,
2013-06-10 13:52:00,68.7,63.3,30.07,West,259,0.0,7.0,83,0.00,,,0.00,420.0,meteohub,2013-06-10 23:52:00,
2013-06-10 13:57:00,69.4,63.3,30.07,NW,323,1.0,7.0,81,0.00,,,0.00,455.0,meteohub,2013-06-10 23:57:00,
2013-06-10 14:02:00,69.3,63.5,30.07,South,169,5.0,7.0,82,0.00,,,0.00,471.0,meteohub,2013-06-11 00:02:00,
2013-06-10 14:07:00,69.4,63.7,30.07,SW,227,0.0,8.0,82,0.00,,,0.00,668.0,meteohub,2013-06-11 00:07:00,
2013-06-10 14:12:00,70.3,63.9,30.06,SW,225,3.0,8.0,80,0.00,,,0.00,810.0,meteohub,2013-06-11 00:12:00,
2013-06-10 14:17:00,70.5,64.0,30.06,SW,230,2.0,6.0,80,0.00,,,0.00,506.0,meteohub,2013-06-11 00:17:00,
2013-06-10 14:23:00,70.5,64.0,30.06,WSW,253,2.0,8.0,80,0.00,,,0.00,388.0,meteohub,2013-06-11 00:23:00,
2013-06-10 14:28:00,70.2,63.7,30.07,SW,228,2.0,8.0,80,0.00,,,0.00,415.0,meteohub,2013-06-11 00:28:00,
2013-06-10 14:33:00,70.0,63.9,30.07,WSW,248,2.0,8.0,81,0.00,,,0.00,420.0,meteohub,2013-06-11 00:33:00,
2013-06-10 14:38:00,69.8,64.4,30.06,West,261,0.0,7.0,83,0.00,,,0.00,329.0,meteohub,2013-06-11 00:38:00,
2013-06-10 14:43:00,69.6,64.2,30.07,West,281,0.0,8.0,83,0.00,,,0.00,285.0,meteohub,2013-06-11 00:43:00,
2013-06-10 14:48:00,68.9,63.5,30.07,SW,234,0.0,8.0,83,0.00,,,0.00,213.0,meteohub,2013-06-11 00:48:00,
2013-06-10 14:53:00,68.7,63.7,30.06,SW,232,0.0,7.0,84,0.00,,,0.00,329.0,meteohub,2013-06-11 00:53:00,
2013-06-10 14:58:00,68.7,63.7,30.06,South,178,3.0,7.0,84,0.00,,,0.00,403.0,meteohub,2013-06-11 00:58:00,
2013-06-10 15:03:00,68.7,64.0,30.06,West,259,3.0,6.0,85,0.00,,,0.00,517.0,meteohub,2013-06-11 01:03:00,
2013-06-10 15:08:00,69.1,64.4,30.06,SW,227,3.0,6.0,85,0.00,,,0.00,385.0,meteohub,2013-06-11 01:08:00,
2013-06-10 15:13:00,69.3,63.9,30.06,SW,214,1.0,6.0,83,0.00,,,0.00,295.0,meteohub,2013-06-11 01:13:00,
2013-06-10 15:18:00,69.4,64.0,30.06,WSW,240,4.0,6.0,83,0.00,,,0.00,221.0,meteohub,2013-06-11 01:18:00,
2013-06-10 15:23:00,69.1,64.4,30.06,SSW,192,1.0,6.0,85,0.00,,,0.00,128.0,meteohub,2013-06-11 01:23:00,
2013-06-10 15:28:00,68.7,64.0,30.06,SW,231,4.0,6.0,85,0.00,,,0.00,218.0,meteohub,2013-06-11 01:28:00,
2013-06-10 15:33:00,68.4,64.4,30.06,SSW,211,0.0,6.0,87,0.00,,,0.00,345.0,meteohub,2013-06-11 01:33:00,
2013-06-10 15:38:00,68.5,64.8,30.06,NW,314,2.0,6.0,88,0.00,,,0.00,422.0,meteohub,2013-06-11 01:38:00,
2013-06-10 15:43:00,68.4,64.4,30.06,WSW,257,0.0,6.0,87,0.00,,,0.00,132.0,meteohub,2013-06-11 01:43:00,
2013-06-10 15:48:00,67.8,64.2,30.06,South,169,2.0,5.0,88,0.00,,,0.00,102.0,meteohub,2013-06-11 01:48:00,
2013-06-10 15:53:00,67.3,63.9,30.06,SW,229,2.0,5.0,89,0.00,,,0.00,183.0,meteohub,2013-06-11 01:53:00,
2013-06-10 15:58:00,66.7,63.7,30.06,WSW,244,1.0,5.0,90,0.00,,,0.00,139.0,meteohub,2013-06-11 01:58:00,
2013-06-10 16:03:00,66.7,63.7,30.06,SW,236,1.0,5.0,90,0.00,,,0.00,174.0,meteohub,2013-06-11 02:03:00,
2013-06-10 16:08:00,66.6,63.5,30.06,WSW,246,0.0,5.0,90,0.00,,,0.00,221.0,meteohub,2013-06-11 02:08:00,
2013-06-10 16:13:00,66.6,63.9,30.05,SW,227,2.0,5.0,91,0.00,,,0.00,274.0,meteohub,2013-06-11 02:13:00,
2013-06-10 16:18:00,66.6,63.1,30.05,SW,215,1.0,5.0,89,0.00,,,0.00,267.0,meteohub,2013-06-11 02:18:00,
2013-06-10 16:23:00,66.9,64.2,30.05,SW,234,1.0,4.0,91,0.00,,,0.00,193.0,meteohub,2013-06-11 02:23:00,
2013-06-10 16:28:00,66.9,63.5,30.06,WSW,238,0.0,4.0,89,0.00,,,0.00,149.0,meteohub,2013-06-11 02:28:00,
2013-06-10 16:33:00,66.9,63.3,30.06,WNW,300,1.0,5.0,88,0.00,,,0.00,111.0,meteohub,2013-06-11 02:33:00,
2013-06-10 16:38:00,66.9,63.5,30.06,SSW,211,1.0,5.0,89,0.00,,,0.00,134.0,meteohub,2013-06-11 02:38:00,
2013-06-10 16:43:00,66.9,63.9,30.06,WSW,252,1.0,5.0,90,0.00,,,0.00,95.0,meteohub,2013-06-11 02:43:00,
2013-06-10 16:48:00,66.7,63.7,30.06,WSW,242,0.0,4.0,90,0.00,,,0.00,104.0,meteohub,2013-06-11 02:48:00,
2013-06-10 16:53:00,66.2,63.5,30.06,WNW,288,0.0,5.0,91,0.00,,,0.00,49.0,meteohub,2013-06-11 02:53:00,
2013-06-10 16:58:00,65.8,63.5,30.06,SW,235,0.0,5.0,92,0.00,,,0.00,16.0,meteohub,2013-06-11 02:58:00,
2013-06-10 17:03:00,65.7,63.3,30.05,North,0,2.0,5.0,92,0.00,,,0.00,16.0,meteohub,2013-06-11 03:03:00,
2013-06-10 17:08:00,65.3,63.1,30.06,WSW,250,1.0,3.0,93,0.00,,,0.00,25.0,meteohub,2013-06-11 03:08:00,
2013-06-10 17:13:00,64.9,63.1,30.05,SW,234,0.0,3.0,94,0.00,,,0.00,26.0,meteohub,2013-06-11 03:13:00,
2013-06-10 17:18:00,64.8,63.0,30.06,SW,220,0.0,4.0,94,0.00,,,0.00,19.0,meteohub,2013-06-11 03:18:00,
2013-06-10 17:23:00,64.4,63.0,30.06,WSW,238,1.0,4.0,95,0.00,,,0.00,16.0,meteohub,2013-06-11 03:23:00,
2013-06-10 17:28:00,64.0,62.6,30.06,WSW,240,1.0,4.0,95,0.00,,,0.00,21.0,meteohub,2013-06-11 03:28:00,
2013-06-10 17:33:00,63.9,62.4,30.06,WSW,240,2.0,4.0,95,0.00,,,0.00,25.0,meteohub,2013-06-11 03:33:00,
2013-06-10 17:38:00,63.7,62.2,30.06,West,259,0.0,4.0,95,0.00,,,0.00,25.0,meteohub,2013-06-11 03:38:00,
2013-06-10 17:43:00,63.7,62.6,30.06,West,261,0.0,4.0,96,0.00,,,0.00,23.0,meteohub,2013-06-11 03:43:00,
2013-06-10 17:48:00,63.7,62.6,30.06,SSW,212,0.0,4.0,96,0.00,,,0.00,28.0,meteohub,2013-06-11 03:48:00,
2013-06-10 17:53:00,63.5,62.1,30.06,SW,214,0.0,2.0,95,0.00,,,0.00,30.0,meteohub,2013-06-11 03:53:00,
2013-06-10 17:58:00,63.3,61.9,30.06,SE,144,3.0,3.0,95,0.00,,,0.00,37.0,meteohub,2013-06-11 03:58:00,
2013-06-10 18:01:00,63.1,61.7,30.06,SE,131,4.0,4.0,95,0.00,,,0.00,39.0,meteohub,2013-06-11 04:01:00,
2013-06-10 18:02:00,63.1,61.7,30.06,SE,135,2.0,3.0,95,0.00,,,0.00,40.0,meteohub,2013-06-11 04:02:00,
2013-06-10 18:03:00,63.1,61.7,30.06,SE,132,4.0,4.0,95,0.00,,,0.00,44.0,meteohub,2013-06-11 04:03:00,
2013-06-10 18:08:00,63.1,61.7,30.06,SE,142,3.0,5.0,95,0.00,,,0.00,46.0,meteohub,2013-06-11 04:08:00,
2013-06-10 18:13:00,63.3,61.5,30.06,ESE,104,4.0,5.0,94,0.00,,,0.00,44.0,meteohub,2013-06-11 04:13:00,
2013-06-10 18:18:00,63.3,61.5,30.06,ESE,103,2.0,5.0,94,0.00,,,0.00,42.0,meteohub,2013-06-11 04:18:00,
2013-06-10 18:23:00,63.5,61.7,30.06,ESE,106,0.0,5.0,94,0.00,,,0.00,40.0,meteohub,2013-06-11 04:23:00,
2013-06-10 18:28:00,63.7,61.9,30.06,ESE,106,0.0,5.0,94,0.00,,,0.00,42.0,meteohub,2013-06-11 04:28:00,
2013-06-10 18:33:00,63.9,62.1,30.06,ESE,107,0.0,4.0,94,0.00,,,0.00,40.0,meteohub,2013-06-11 04:33:00,
2013-06-10 18:38:00,63.9,61.9,30.06,ESE,107,0.0,3.0,93,0.00,,,0.00,25.0,meteohub,2013-06-11 04:38:00,
2013-06-10 18:43:00,64.0,62.1,30.07,ESE,106,0.0,1.0,93,0.00,,,0.00,14.0,meteohub,2013-06-11 04:43:00,
2013-06-10 18:48:00,64.0,61.7,30.07,ESE,107,0.0,1.0,92,0.00,,,0.00,11.0,meteohub,2013-06-11 04:48:00,
2013-06-10 18:53:00,64.0,61.7,30.07,ESE,106,0.0,1.0,92,0.00,,,0.00,7.0,meteohub,2013-06-11 04:53:00,
2013-06-10 18:58:00,64.0,61.7,30.07,ESE,108,0.0,1.0,92,0.00,,,0.00,0.0,meteohub,2013-06-11 04:58:00,
2013-06-10 19:03:00,64.0,61.7,30.07,ESE,105,0.0,1.0,92,0.00,,,0.00,0.0,meteohub,2013-06-11 05:03:00,
2013-06-10 19:08:00,64.2,62.4,30.07,ESE,105,0.0,0.0,94,0.00,,,0.00,0.0,meteohub,2013-06-11 05:08:00,
2013-06-10 19:13:00,64.0,62.2,30.07,ESE,106,0.0,0.0,94,0.00,,,0.00,0.0,meteohub,2013-06-11 05:13:00,
2013-06-10 19:18:00,63.9,62.1,30.07,ESE,105,0.0,0.0,94,0.00,,,0.00,0.0,meteohub,2013-06-11 05:18:00,
2013-06-10 19:23:00,63.7,61.9,30.07,ESE,107,0.0,0.0,94,0.00,,,0.00,0.0,meteohub,2013-06-11 05:23:00,
2013-06-10 19:28:00,63.7,61.7,30.07,ESE,107,0.0,1.0,93,0.00,,,0.00,0.0,meteohub,2013-06-11 05:28:00,
2013-06-10 19:33:00,63.5,61.7,30.07,ESE,107,0.0,1.0,94,0.00,,,0.00,0.0,meteohub,2013-06-11 05:33:00,
2013-06-10 19:38:00,63.5,61.7,30.07,ESE,107,0.0,1.0,94,0.00,,,0.00,0.0,meteohub,2013-06-11 05:38:00,
2013-06-10 19:43:00,63.7,62.2,30.07,ESE,107,0.0,0.0,95,0.00,,,0.00,0.0,meteohub,2013-06-11 05:43:00,
2013-06-10 19:48:00,63.7,62.6,30.07,ESE,106,0.0,0.0,96,0.00,,,0.00,0.0,meteohub,2013-06-11 05:48:00,
2013-06-10 19:53:00,63.7,62.6,30.08,ESE,104,0.0,0.0,96,0.00,,,0.00,0.0,meteohub,2013-06-11 05:53:00,
2013-06-10 19:58:00,63.7,62.6,30.08,ESE,107,0.0,0.0,96,0.00,,,0.00,0.0,meteohub,2013-06-11 05:58:00,
2013-06-10 20:03:00,63.7,62.6,30.07,ESE,107,0.0,0.0,96,0.00,,,0.00,0.0,meteohub,2013-06-11 06:03:00,
2013-06-10 20:08:00,63.3,61.9,30.08,ESE,105,0.0,0.0,95,0.00,,,0.00,0.0,meteohub,2013-06-11 06:08:00,
2013-06-10 20:13:00,63.3,62.2,30.08,SW,223,0.0,1.0,96,0.00,,,0.00,0.0,meteohub,2013-06-11 06:13:00,
2013-06-10 20:18:00,63.3,62.4,30.08,West,278,0.0,1.0,97,0.00,,,0.00,0.0,meteohub,2013-06-11 06:18:00,
2013-06-10 20:23:00,63.1,62.2,30.08,WNW,284,0.0,2.0,97,0.00,,,0.00,0.0,meteohub,2013-06-11 06:23:00,
2013-06-10 20:28:00,63.0,62.1,30.09,SW,219,0.0,3.0,97,0.00,,,0.00,0.0,meteohub,2013-06-11 06:28:00,
2013-06-10 20:33:00,62.8,61.9,30.09,SW,221,0.0,3.0,97,0.00,,,0.00,0.0,meteohub,2013-06-11 06:33:00,
2013-06-10 20:38:00,62.6,61.7,30.09,North,0,0.0,2.0,97,0.00,,,0.00,0.0,meteohub,2013-06-11 06:38:00,
2013-06-10 20:43:00,62.4,61.5,30.09,SW,219,0.0,2.0,97,0.00,,,0.00,0.0,meteohub,2013-06-11 06:43:00,
2013-06-10 20:48:00,62.2,61.3,30.09,SW,218,0.0,1.0,97,0.00,,,0.00,0.0,meteohub,2013-06-11 06:48:00,
2013-06-10 20:53:00,62.2,61.3,30.09,SSE,159,0.0,1.0,97,0.00,,,0.00,0.0,meteohub,2013-06-11 06:53:00,
2013-06-10 20:58:00,62.2,61.3,30.09,SSE,159,0.0,1.0,97,0.00,,,0.00,0.0,meteohub,2013-06-11 06:58:00,
2013-06-10 21:03:00,62.2,61.3,30.09,SSE,160,0.0,1.0,97,0.00,,,0.00,0.0,meteohub,2013-06-11 07:03:00,
2013-06-10 21:08:00,62.1,61.2,30.10,SSE,160,0.0,1.0,97,0.00,,,0.00,0.0,meteohub,2013-06-11 07:08:00,
2013-06-10 21:13:00,62.1,61.2,30.09,SSE,159,0.0,1.0,97,0.00,,,0.00,0.0,meteohub,2013-06-11 07:13:00,
2013-06-10 21:18:00,62.1,61.2,30.09,SSE,159,0.0,1.0,97,0.00,,,0.00,0.0,meteohub,2013-06-11 07:18:00,
2013-06-10 21:23:00,62.1,61.2,30.09,SSE,158,0.0,0.0,97,0.00,,,0.00,0.0,meteohub,2013-06-11 07:23:00,
2013-06-10 21:28:00,62.1,61.2,30.09,SSE,158,0.0,0.0,97,0.00,,,0.00,0.0,meteohub,2013-06-11 07:28:00,
2013-06-10 21:33:00,62.1,61.2,30.09,SSE,158,0.0,0.0,97,0.00,,,0.00,0.0,meteohub,2013-06-11 07:33:00,
2013-06-10 21:38:00,62.1,61.2,30.09,SSE,159,0.0,0.0,97,0.00,,,0.00,0.0,meteohub,2013-06-11 07:38:00,
2013-06-10 21:43:00,62.1,61.2,30.09,SSE,159,0.0,0.0,97,0.00,,,0.00,0.0,meteohub,2013-06-11 07:43:00,
2013-06-10 21:48:00,61.9,60.8,30.09,SSE,161,0.0,0.0,96,0.00,,,0.00,0.0,meteohub,2013-06-11 07:48:00,
2013-06-10 21:53:00,61.5,60.1,30.09,SSE,159,0.0,0.0,95,0.00,,,0.00,0.0,meteohub,2013-06-11 07:53:00,
2013-06-10 21:58:00,61.3,59.9,30.09,SSE,159,0.0,0.0,95,0.00,,,0.00,0.0,meteohub,2013-06-11 07:58:00,
2013-06-10 22:04:00,61.2,59.7,30.09,SSE,159,0.0,0.0,95,0.00,,,0.00,0.0,meteohub,2013-06-11 08:04:00,
2013-06-10 22:09:00,60.8,59.4,30.10,SSE,159,0.0,0.0,95,0.00,,,0.00,0.0,meteohub,2013-06-11 08:09:00,
2013-06-10 22:14:00,60.4,59.0,30.10,SSE,159,0.0,0.0,95,0.00,,,0.00,0.0,meteohub,2013-06-11 08:14:00,
2013-06-10 22:19:00,60.1,58.3,30.09,SE,138,0.0,0.0,94,0.00,,,0.00,0.0,meteohub,2013-06-11 08:19:00,
2013-06-10 22:24:00,59.7,57.9,30.10,SE,139,0.0,0.0,94,0.00,,,0.00,0.0,meteohub,2013-06-11 08:24:00,
2013-06-10 22:29:00,59.7,57.9,30.09,SE,128,0.0,0.0,94,0.00,,,0.00,0.0,meteohub,2013-06-11 08:29:00,
2013-06-10 22:34:00,59.5,57.7,30.09,SE,126,0.0,0.0,94,0.00,,,0.00,0.0,meteohub,2013-06-11 08:34:00,
2013-06-10 22:39:00,59.5,57.6,30.09,ESE,109,0.0,0.0,93,0.00,,,0.00,0.0,meteohub,2013-06-11 08:39:00,
2013-06-10 22:44:00,59.5,57.2,30.09,East,101,0.0,0.0,92,0.00,,,0.00,0.0,meteohub,2013-06-11 08:44:00,
2013-06-10 22:49:00,59.4,56.7,30.09,ESE,103,1.0,0.0,91,0.00,,,0.00,0.0,meteohub,2013-06-11 08:49:00,
2013-06-10 22:54:00,59.2,56.8,30.09,ESE,102,0.0,2.0,92,0.00,,,0.00,0.0,meteohub,2013-06-11 08:54:00,
2013-06-10 22:59:00,58.6,56.3,30.09,ESE,103,0.0,2.0,92,0.00,,,0.00,0.0,meteohub,2013-06-11 08:59:00,
2013-06-10 23:04:00,58.3,56.3,30.09,East,98,2.0,2.0,93,0.00,,,0.00,0.0,meteohub,2013-06-11 09:04:00,
2013-06-10 23:09:00,57.9,55.6,30.09,ESE,105,2.0,3.0,92,0.00,,,0.00,0.0,meteohub,2013-06-11 09:09:00,
2013-06-10 23:14:00,57.7,55.4,30.09,East,98,0.0,5.0,92,0.00,,,0.00,0.0,meteohub,2013-06-11 09:14:00,
2013-06-10 23:19:00,57.6,55.2,30.09,East,92,2.0,5.0,92,0.00,,,0.00,0.0,meteohub,2013-06-11 09:19:00,
2013-06-10 23:24:00,57.4,55.0,30.09,ENE,74,2.0,5.0,92,0.00,,,0.00,0.0,meteohub,2013-06-11 09:24:00,
2013-06-10 23:29:00,57.6,55.0,30.09,East,93,2.0,3.0,91,0.00,,,0.00,0.0,meteohub,2013-06-11 09:29:00,
2013-06-10 23:34:00,57.4,54.5,30.09,East,81,2.0,5.0,90,0.00,,,0.00,0.0,meteohub,2013-06-11 09:34:00,
2013-06-10 23:39:00,57.4,54.1,30.09,East,82,2.0,5.0,89,0.00,,,0.00,0.0,meteohub,2013-06-11 09:39:00,
2013-06-10 23:44:00,57.0,54.1,30.09,ENE,67,2.0,5.0,90,0.00,,,0.00,0.0,meteohub,2013-06-11 09:44:00,
2013-06-10 23:49:00,56.8,54.3,30.09,East,82,0.0,3.0,91,0.00,,,0.00,0.0,meteohub,2013-06-11 09:49:00,
2013-06-10 23:54:00,56.5,54.0,30.08,East,82,0.0,3.0,91,0.00,,,0.00,0.0,meteohub,2013-06-11 09:54:00,
2013-06-10 23:59:00,56.1,53.8,30.08,East,88,0.0,3.0,92,0.00,,,0.00,0.0,meteohub,2013-06-11 09:59:00,